createdAt,value
2023-09-02T00:00:45.342Z,6.75
2023-09-02T00:03:06.095Z,6.70
2023-09-02T00:05:26.858Z,6.68
2023-09-02T00:07:47.351Z,7.55
2023-09-02T00:10:09.800Z,6.50
2023-09-02T00:12:30.227Z,7.70
2023-09-02T00:14:50.766Z,6.78
2023-09-02T00:17:11.870Z,6.95
2023-09-02T00:19:32.627Z,7.90
2023-09-02T00:21:53.838Z,5.95
2023-09-02T00:24:14.629Z,6.75
2023-09-02T00:26:35.205Z,6.88
2023-09-02T00:28:55.671Z,7.30
2023-09-02T00:31:16.106Z,7.90
2023-09-02T00:33:37.399Z,7.25
2023-09-02T00:35:58.194Z,6.25
2023-09-02T00:38:18.642Z,5.82
2023-09-02T00:40:46.998Z,6.35
2023-09-02T00:43:07.865Z,6.55
2023-09-02T00:45:28.585Z,6.28
2023-09-02T00:47:51.448Z,6.78
2023-09-02T00:50:11.971Z,5.40
2023-09-02T00:52:35.712Z,7.38
2023-09-02T00:54:56.542Z,6.18
2023-09-02T00:57:17.167Z,6.25
2023-09-02T00:59:38.052Z,5.88
2023-09-02T01:02:02.046Z,7.18
2023-09-02T01:04:22.901Z,6.72
2023-09-02T01:06:43.469Z,7.38
2023-09-02T01:09:05.300Z,6.05
2023-09-02T01:11:26.142Z,5.30
2023-09-02T01:13:46.635Z,6.30
2023-09-02T01:16:07.530Z,6.40
2023-09-02T01:18:28.795Z,6.97
2023-09-02T01:21:20.361Z,6.30
2023-09-02T01:24:11.633Z,6.53
2023-09-02T01:26:50.923Z,7.15
2023-09-02T01:29:19.370Z,6.85
2023-09-02T01:31:40.720Z,6.28
2023-09-02T01:34:01.711Z,6.50
2023-09-02T01:36:23.650Z,7.68
2023-09-02T01:38:44.738Z,9.30
2023-09-02T01:41:06.450Z,7.50
2023-09-02T01:43:30.835Z,6.93
2023-09-02T01:45:52.666Z,7.50
2023-09-02T01:48:14.116Z,6.00
2023-09-02T01:50:36.072Z,6.30
2023-09-02T01:52:57.570Z,6.68
2023-09-02T01:55:18.437Z,5.60
2023-09-02T01:57:40.772Z,5.90
2023-09-02T02:00:01.387Z,5.78
2023-09-02T02:02:22.820Z,7.50
2023-09-02T02:04:47.292Z,6.03
2023-09-02T02:07:12.775Z,5.97
2023-09-02T02:12:09.379Z,8.57
2023-09-02T02:14:34.025Z,6.72
2023-09-02T02:16:54.598Z,6.57
2023-09-02T02:19:15.568Z,7.18
2023-09-02T02:21:36.319Z,6.47
2023-09-02T02:23:58.220Z,7.38
2023-09-02T02:26:18.893Z,7.32
2023-09-02T02:28:39.763Z,7.07
2023-09-02T02:31:01.085Z,9.18
2023-09-02T02:33:21.570Z,7.25
2023-09-02T02:35:42.343Z,6.22
2023-09-02T02:38:02.932Z,6.90
2023-09-02T02:40:23.814Z,7.15
2023-09-02T02:42:44.345Z,6.07
2023-09-02T02:45:05.437Z,6.68
2023-09-02T02:47:26.000Z,6.90
2023-09-02T02:49:46.894Z,5.90
2023-09-02T02:52:07.528Z,7.32
2023-09-02T02:54:28.495Z,6.28
2023-09-02T02:56:49.357Z,6.60
2023-09-02T02:59:09.869Z,7.63
2023-09-02T03:01:31.485Z,7.40
2023-09-02T03:03:52.270Z,6.00
2023-09-02T03:06:18.884Z,5.68
2023-09-02T03:08:39.576Z,8.00
2023-09-02T03:11:02.438Z,7.10
2023-09-02T03:13:24.990Z,7.80
2023-09-02T03:15:54.771Z,6.30
2023-09-02T03:18:15.414Z,6.20
2023-09-02T03:20:36.189Z,7.28
2023-09-02T03:22:56.654Z,6.80
2023-09-02T03:25:17.430Z,6.07
2023-09-02T03:27:41.792Z,9.00
2023-09-02T03:30:02.768Z,5.38
2023-09-02T03:32:27.512Z,6.82
2023-09-02T03:34:48.359Z,8.40
2023-09-02T03:37:09.291Z,6.82
2023-09-02T03:39:32.166Z,7.22
2023-09-02T03:41:52.914Z,6.68
2023-09-02T03:44:13.341Z,5.60
2023-09-02T03:46:34.135Z,6.80
2023-09-02T03:48:54.717Z,6.72
2023-09-02T03:51:18.324Z,7.28
2023-09-02T03:53:40.119Z,7.38
2023-09-02T03:56:00.835Z,6.78
2023-09-02T03:58:21.366Z,7.20
2023-09-02T04:00:41.816Z,6.97
2023-09-02T04:03:02.302Z,5.88
2023-09-02T04:05:22.949Z,6.82
2023-09-02T04:07:43.305Z,7.25
2023-09-02T04:10:03.977Z,7.75
2023-09-02T04:12:24.680Z,7.22
2023-09-02T04:14:45.115Z,6.20
2023-09-02T04:17:05.572Z,7.00
2023-09-02T04:19:26.268Z,6.20
2023-09-02T04:21:50.470Z,6.60
2023-09-02T04:24:11.254Z,7.00
2023-09-02T04:26:31.626Z,5.90
2023-09-02T04:28:53.698Z,6.65
2023-09-02T04:31:14.675Z,7.43
2023-09-02T04:33:35.861Z,7.07
2023-09-02T04:35:56.756Z,7.50
2023-09-02T04:38:17.810Z,8.15
2023-09-02T04:40:39.735Z,6.97
2023-09-02T04:43:00.591Z,7.63
2023-09-02T04:45:21.395Z,7.95
2023-09-02T04:47:42.093Z,7.07
2023-09-02T04:50:03.811Z,6.38
2023-09-02T04:52:24.407Z,7.07
2023-09-02T04:54:46.347Z,8.60
2023-09-02T04:57:06.980Z,6.93
2023-09-02T04:59:27.597Z,8.02
2023-09-02T05:01:48.174Z,7.07
2023-09-02T05:04:08.550Z,9.05
2023-09-02T05:06:29.203Z,6.00
2023-09-02T05:08:55.152Z,6.68
2023-09-02T05:11:15.546Z,6.57
2023-09-02T05:13:36.016Z,6.20
2023-09-02T05:15:56.500Z,7.57
2023-09-02T05:18:16.884Z,7.40
2023-09-02T05:20:41.183Z,7.10
2023-09-02T05:23:01.889Z,7.55
2023-09-02T05:25:22.925Z,8.18
2023-09-02T05:27:43.790Z,6.38
2023-09-02T05:30:05.209Z,5.80
2023-09-02T05:32:25.815Z,5.72
2023-09-02T05:34:49.555Z,6.80
2023-09-02T05:37:10.149Z,6.43
2023-09-02T05:39:31.178Z,6.45
2023-09-02T05:41:51.921Z,6.70
2023-09-02T05:44:13.322Z,6.43
2023-09-02T05:46:33.805Z,5.65
2023-09-02T05:48:54.396Z,7.85
2023-09-02T05:51:14.867Z,5.82
2023-09-02T05:53:35.432Z,8.65
2023-09-02T05:55:56.634Z,7.03
2023-09-02T05:58:17.487Z,7.40
2023-09-02T06:00:38.034Z,6.93
2023-09-02T06:02:58.540Z,6.95
2023-09-02T06:05:19.004Z,6.32
2023-09-02T06:07:39.604Z,5.93
2023-09-02T06:10:00.263Z,6.90
2023-09-02T06:12:20.981Z,7.10
2023-09-02T06:14:41.530Z,6.05
2023-09-02T06:17:02.238Z,5.95
2023-09-02T06:19:23.093Z,7.63
2023-09-02T06:21:43.909Z,5.65
2023-09-02T06:24:06.491Z,9.05
2023-09-02T06:26:27.410Z,8.25
2023-09-02T06:28:48.124Z,7.40
2023-09-02T06:31:09.857Z,6.38
2023-09-02T06:33:30.579Z,7.38
2023-09-02T06:35:52.273Z,6.35
2023-09-02T06:38:12.943Z,6.57
2023-09-02T06:40:33.678Z,6.25
2023-09-02T06:42:54.138Z,5.82
2023-09-02T06:45:14.851Z,6.35
2023-09-02T06:47:35.402Z,7.95
2023-09-02T06:49:56.031Z,7.40
2023-09-02T06:52:16.860Z,7.75
2023-09-02T06:54:37.498Z,7.38
2023-09-02T06:56:57.852Z,7.22
2023-09-02T06:59:18.215Z,6.72
2023-09-02T07:01:38.781Z,10.48
2023-09-02T07:03:59.422Z,6.38
2023-09-02T07:06:20.817Z,7.65
2023-09-02T07:08:42.227Z,7.57
2023-09-02T07:11:03.256Z,5.65
2023-09-02T07:13:23.781Z,6.97
2023-09-02T07:15:44.140Z,6.18
2023-09-02T07:18:06.062Z,6.53
2023-09-02T07:20:26.979Z,5.43
2023-09-02T07:22:47.333Z,6.45
2023-09-02T07:25:08.349Z,6.20
2023-09-02T07:27:29.073Z,5.63
2023-09-02T07:29:49.477Z,5.97
2023-09-02T07:32:09.995Z,5.78
2023-09-02T07:34:30.970Z,6.97
2023-09-02T07:36:51.401Z,4.85
2023-09-02T07:39:11.905Z,7.35
2023-09-02T07:41:32.702Z,5.70
2023-09-02T07:43:53.013Z,5.80
2023-09-02T07:46:13.727Z,4.85
2023-09-02T07:48:34.443Z,6.88
2023-09-02T07:50:54.960Z,5.40
2023-09-02T07:53:15.903Z,6.32
2023-09-02T07:55:37.874Z,5.60
2023-09-02T07:58:00.974Z,6.78
2023-09-02T08:00:21.746Z,5.85
2023-09-02T08:02:42.410Z,5.57
2023-09-02T08:05:02.915Z,5.13
2023-09-02T08:07:23.577Z,5.63
2023-09-02T08:09:44.224Z,4.93
2023-09-02T08:12:05.096Z,4.72
2023-09-02T08:14:25.545Z,5.45
2023-09-02T08:16:46.101Z,6.45
2023-09-02T08:19:08.068Z,6.03
2023-09-02T08:21:28.799Z,4.82
2023-09-02T08:23:49.278Z,4.72
2023-09-02T08:26:14.293Z,6.47
2023-09-02T08:28:35.043Z,4.95
2023-09-02T08:30:55.849Z,4.38
2023-09-02T08:33:16.839Z,5.35
2023-09-02T08:35:38.087Z,4.68
2023-09-02T08:37:58.698Z,4.40
2023-09-02T08:40:19.265Z,5.00
2023-09-02T08:42:40.707Z,5.68
2023-09-02T08:45:06.402Z,4.75
2023-09-02T08:47:31.000Z,4.95
2023-09-02T08:49:52.826Z,5.22
2023-09-02T08:52:14.234Z,4.57
2023-09-02T08:54:36.105Z,5.03
2023-09-02T08:56:58.942Z,5.22
2023-09-02T08:59:19.926Z,6.65
2023-09-02T09:01:45.586Z,4.78
2023-09-02T09:04:08.240Z,4.22
2023-09-02T09:06:31.644Z,5.68
2023-09-02T09:08:55.330Z,4.65
2023-09-02T09:11:17.603Z,4.35
2023-09-02T09:13:45.968Z,5.55
2023-09-02T09:16:07.995Z,4.90
2023-09-02T09:18:29.326Z,4.75
2023-09-02T09:20:49.953Z,4.25
2023-09-02T09:23:10.512Z,4.85
2023-09-02T09:25:31.264Z,4.45
2023-09-02T09:27:52.046Z,5.45
2023-09-02T09:30:28.965Z,5.65
2023-09-02T09:33:02.077Z,5.25
2023-09-02T09:35:23.365Z,4.80
2023-09-02T09:37:54.400Z,5.95
2023-09-02T09:40:14.941Z,4.32
2023-09-02T09:42:36.256Z,3.78
2023-09-02T09:44:59.096Z,3.97
2023-09-02T09:47:20.285Z,5.50
2023-09-02T09:49:41.003Z,5.72
2023-09-02T09:52:01.490Z,5.45
2023-09-02T09:54:57.342Z,6.97
2023-09-02T09:57:36.659Z,6.20
2023-09-02T09:59:58.321Z,4.63
2023-09-02T10:02:21.727Z,5.28
2023-09-02T10:04:50.776Z,4.20
2023-09-02T10:07:14.924Z,5.53
2023-09-02T10:09:44.068Z,3.40
2023-09-02T10:12:12.821Z,4.13
2023-09-02T10:14:33.520Z,5.07
2023-09-02T10:16:54.053Z,3.03
2023-09-02T10:19:19.355Z,4.85
2023-09-02T10:21:41.465Z,3.92
2023-09-02T10:24:06.355Z,4.10
2023-09-02T10:26:49.837Z,4.28
2023-09-02T10:29:13.501Z,4.25
2023-09-02T10:31:40.014Z,4.13
2023-09-02T10:34:28.842Z,4.25
2023-09-02T10:36:57.988Z,3.85
2023-09-02T10:39:28.996Z,4.25
2023-09-02T10:41:50.620Z,3.85
2023-09-02T10:44:12.868Z,4.75
2023-09-02T10:46:34.333Z,4.28
2023-09-02T10:48:55.833Z,4.13
2023-09-02T10:51:17.204Z,3.75
2023-09-02T10:53:53.342Z,4.82
2023-09-02T10:56:34.499Z,4.38
2023-09-02T10:58:55.674Z,4.85
2023-09-02T11:01:16.715Z,3.38
2023-09-02T11:03:49.125Z,2.90
2023-09-02T11:06:13.035Z,3.53
2023-09-02T11:08:45.156Z,5.35
2023-09-02T11:11:05.881Z,3.75
2023-09-02T11:13:26.442Z,3.97
2023-09-02T11:16:14.773Z,4.57
2023-09-02T11:18:40.959Z,3.28
2023-09-02T11:21:01.969Z,4.55
2023-09-02T11:23:24.702Z,4.40
2023-09-02T11:25:46.376Z,4.43
2023-09-02T11:28:26.984Z,4.20
2023-09-02T11:31:11.316Z,4.40
2023-09-02T11:33:34.952Z,4.15
2023-09-02T11:36:04.248Z,4.63
2023-09-02T11:38:24.786Z,4.00
2023-09-02T11:40:45.267Z,3.83
2023-09-02T11:43:05.784Z,3.42
2023-09-02T11:45:29.505Z,4.00
2023-09-02T11:47:51.171Z,3.00
2023-09-02T11:50:14.490Z,5.88
2023-09-02T11:52:36.340Z,4.30
2023-09-02T11:54:57.097Z,4.60
2023-09-02T11:57:21.462Z,4.13
2023-09-02T11:59:44.821Z,3.47
2023-09-02T12:02:14.007Z,4.35
2023-09-02T12:04:42.135Z,4.30
2023-09-02T12:07:03.100Z,4.38
2023-09-02T12:09:23.974Z,4.97
2023-09-02T12:11:44.536Z,4.47
2023-09-02T12:14:05.227Z,4.15
2023-09-02T12:16:26.949Z,4.60
2023-09-02T12:18:47.671Z,3.80
2023-09-02T12:21:08.364Z,5.28
2023-09-02T12:23:29.247Z,4.40
2023-09-02T12:26:10.805Z,4.25
2023-09-02T12:28:31.507Z,3.53
2023-09-02T12:30:52.367Z,3.67
2023-09-02T12:33:17.063Z,3.55
2023-09-02T12:35:37.888Z,3.90
2023-09-02T12:38:03.422Z,4.45
2023-09-02T12:40:24.447Z,4.63
2023-09-02T12:42:55.216Z,4.18
2023-09-02T12:45:15.767Z,4.20
2023-09-02T12:47:38.705Z,5.00
2023-09-02T12:50:04.168Z,3.90
2023-09-02T12:52:26.466Z,3.13
2023-09-02T12:55:07.974Z,4.88
2023-09-02T12:57:31.565Z,4.35
2023-09-02T12:59:52.619Z,3.83
2023-09-02T13:02:13.278Z,4.45
2023-09-02T13:04:33.992Z,3.30
2023-09-02T13:06:54.579Z,4.30
2023-09-02T13:09:15.240Z,4.32
2023-09-02T13:11:36.158Z,3.60
2023-09-02T13:13:56.838Z,4.80
2023-09-02T13:16:18.100Z,4.07
2023-09-02T13:18:38.798Z,6.38
2023-09-02T13:21:02.836Z,5.03
2023-09-02T13:23:23.446Z,5.65
2023-09-02T13:25:43.860Z,5.05
2023-09-02T13:28:06.079Z,3.40
2023-09-02T13:30:26.808Z,4.88
2023-09-02T13:32:47.516Z,4.15
2023-09-02T13:35:15.617Z,4.05
2023-09-02T13:37:36.772Z,4.50
2023-09-02T13:40:24.850Z,4.30
2023-09-02T13:42:47.654Z,4.95
2023-09-02T13:45:17.454Z,4.85
2023-09-02T13:47:45.800Z,4.15
2023-09-02T13:50:08.416Z,4.45
2023-09-02T13:52:29.448Z,4.47
2023-09-02T13:54:53.899Z,3.55
2023-09-02T13:57:15.598Z,2.88
2023-09-02T13:59:36.268Z,3.90
2023-09-02T14:01:56.782Z,4.47
2023-09-02T14:04:17.946Z,3.17
2023-09-02T14:06:38.455Z,3.90
2023-09-02T14:09:01.722Z,4.15
2023-09-02T14:11:22.485Z,4.40
2023-09-02T14:13:43.322Z,3.85
2023-09-02T14:16:05.086Z,4.15
2023-09-02T14:18:25.508Z,4.00
2023-09-02T14:20:46.059Z,4.03
2023-09-02T14:23:06.628Z,3.63
2023-09-02T14:25:27.918Z,4.10
2023-09-02T14:27:48.770Z,4.30
2023-09-02T14:30:09.944Z,4.30
2023-09-02T14:32:30.631Z,4.60
2023-09-02T14:34:51.233Z,3.65
2023-09-02T14:37:12.102Z,3.72
2023-09-02T14:39:34.562Z,5.80
2023-09-02T14:41:55.471Z,3.50
2023-09-02T14:44:19.363Z,3.70
2023-09-02T14:46:40.095Z,4.05
2023-09-02T14:49:00.666Z,3.88
2023-09-02T14:51:21.177Z,4.28
2023-09-02T14:53:41.786Z,4.32
2023-09-02T14:56:06.530Z,4.15
2023-09-02T14:58:32.645Z,4.90
2023-09-02T15:00:55.820Z,4.13
2023-09-02T15:03:27.149Z,5.72
2023-09-02T15:05:48.273Z,4.28
2023-09-02T15:08:08.790Z,4.35
2023-09-02T15:10:33.030Z,3.42
2023-09-02T15:12:54.297Z,3.83
2023-09-02T15:15:16.757Z,5.00
2023-09-02T15:17:37.399Z,3.80
2023-09-02T15:20:01.873Z,4.15
2023-09-02T15:22:22.637Z,4.30
2023-09-02T15:24:43.466Z,4.75
2023-09-02T15:27:05.026Z,3.65
2023-09-02T15:29:25.827Z,4.25
2023-09-02T15:31:49.045Z,4.32
2023-09-02T15:34:10.000Z,4.45
2023-09-02T15:36:30.871Z,3.92
2023-09-02T15:38:51.613Z,3.17
2023-09-02T15:41:12.047Z,4.00
2023-09-02T15:43:38.560Z,3.85
2023-09-02T15:45:59.266Z,3.75
2023-09-02T15:48:21.015Z,4.05
2023-09-02T15:50:41.485Z,4.68
2023-09-02T15:53:02.074Z,3.50
2023-09-02T15:55:24.470Z,3.92
2023-09-02T15:57:44.950Z,3.90
2023-09-02T16:00:07.326Z,3.60
2023-09-02T16:02:27.818Z,3.92
2023-09-02T16:04:48.174Z,3.30
2023-09-02T16:07:08.902Z,3.63
2023-09-02T16:09:31.025Z,3.53
2023-09-02T16:11:53.295Z,3.67
2023-09-02T16:14:13.729Z,4.22
2023-09-02T16:16:36.874Z,3.75
2023-09-02T16:18:58.730Z,3.53
2023-09-02T16:21:19.329Z,4.00
2023-09-02T16:23:40.138Z,3.67
2023-09-02T16:26:00.757Z,4.40
2023-09-02T16:28:21.834Z,3.75
2023-09-02T16:30:42.671Z,3.47
2023-09-02T16:33:03.554Z,3.50
2023-09-02T16:35:25.918Z,4.05
2023-09-02T16:37:47.901Z,4.78
2023-09-02T16:40:10.432Z,2.95
2023-09-02T16:42:33.772Z,4.20
2023-09-02T16:45:02.053Z,4.47
2023-09-02T16:47:24.913Z,3.17
2023-09-02T16:49:45.946Z,3.58
2023-09-02T16:52:09.122Z,3.83
2023-09-02T16:54:31.623Z,3.63
2023-09-02T16:56:52.431Z,4.22
2023-09-02T16:59:13.264Z,3.78
2023-09-02T17:01:35.287Z,4.63
2023-09-02T17:03:56.038Z,3.50
2023-09-02T17:06:26.986Z,3.22
2023-09-02T17:08:47.769Z,4.53
2023-09-02T17:11:08.329Z,4.38
2023-09-02T17:13:28.955Z,4.82
2023-09-02T17:15:49.558Z,3.38
2023-09-02T17:18:10.831Z,4.75
2023-09-02T17:20:36.011Z,4.05
2023-09-02T17:22:59.118Z,4.50
2023-09-02T17:25:20.688Z,4.05
2023-09-02T17:28:03.481Z,4.03
2023-09-02T17:30:26.498Z,3.50
2023-09-02T17:32:50.545Z,3.25
2023-09-02T17:35:11.348Z,4.20
2023-09-02T17:37:35.401Z,3.83
2023-09-02T17:39:56.098Z,3.22
2023-09-02T17:42:18.037Z,3.75
2023-09-02T17:44:38.423Z,4.13
2023-09-02T17:46:58.835Z,3.95
2023-09-02T17:49:19.280Z,3.67
2023-09-02T17:51:39.787Z,3.75
2023-09-02T17:54:00.705Z,3.58
2023-09-02T17:56:21.227Z,5.03
2023-09-02T17:58:42.901Z,4.85
2023-09-02T18:01:03.616Z,3.90
2023-09-02T18:03:24.358Z,5.25
2023-09-02T18:05:45.295Z,3.97
2023-09-02T18:08:05.900Z,2.95
2023-09-02T18:10:26.630Z,3.80
2023-09-02T18:12:47.048Z,3.65
2023-09-02T18:15:10.111Z,3.63
2023-09-02T18:17:30.573Z,5.30
2023-09-02T18:19:51.263Z,4.68
2023-09-02T18:22:11.989Z,4.53
2023-09-02T18:24:36.749Z,4.85
2023-09-02T18:26:57.481Z,5.57
2023-09-02T18:29:18.016Z,5.70
2023-09-02T18:31:38.416Z,5.53
2023-09-02T18:33:59.064Z,4.35
2023-09-02T18:36:23.378Z,4.72
2023-09-02T18:38:43.894Z,4.38
2023-09-02T18:41:04.404Z,4.55
2023-09-02T18:43:24.803Z,5.13
2023-09-02T18:45:45.232Z,5.35
2023-09-02T18:48:07.025Z,6.10
2023-09-02T18:50:29.792Z,4.82
2023-09-02T18:52:50.326Z,5.57
2023-09-02T18:55:10.857Z,5.40
2023-09-02T18:57:31.189Z,5.13
2023-09-02T18:59:52.024Z,7.47
2023-09-02T19:02:12.424Z,4.75
2023-09-02T19:04:32.895Z,6.03
2023-09-02T19:06:53.305Z,6.22
2023-09-02T19:09:15.014Z,4.95
2023-09-02T19:11:35.635Z,5.40
2023-09-02T19:14:00.026Z,5.50
2023-09-02T19:16:20.658Z,5.80
2023-09-02T19:18:41.193Z,6.32
2023-09-02T19:21:01.770Z,6.57
2023-09-02T19:23:22.402Z,6.25
2023-09-02T19:25:44.868Z,6.25
2023-09-02T19:28:06.169Z,6.75
2023-09-02T19:30:26.657Z,5.57
2023-09-02T19:32:47.173Z,6.68
2023-09-02T19:35:12.080Z,7.32
2023-09-02T19:37:43.626Z,7.78
2023-09-02T19:40:04.840Z,8.73
2023-09-02T19:42:25.692Z,7.72
2023-09-02T19:44:46.234Z,7.85
2023-09-02T19:47:06.913Z,8.00
2023-09-02T19:49:27.465Z,7.30
2023-09-02T19:51:47.946Z,8.00
2023-09-02T19:54:10.109Z,7.22
2023-09-02T19:56:30.656Z,8.38
2023-09-02T19:59:02.536Z,7.53
2023-09-02T20:01:27.511Z,8.60
2023-09-02T20:03:48.648Z,8.50
2023-09-02T20:06:15.742Z,8.90
2023-09-02T20:08:36.397Z,8.68
2023-09-02T20:10:59.878Z,8.35
2023-09-02T20:13:20.508Z,10.05
2023-09-02T20:15:41.365Z,10.07
2023-09-02T20:18:02.092Z,8.30
2023-09-02T20:20:22.836Z,7.93
2023-09-02T20:22:46.594Z,9.77
2023-09-02T20:25:07.571Z,7.32
2023-09-02T20:27:28.179Z,7.80
2023-09-02T20:29:50.505Z,8.18
2023-09-02T20:32:11.114Z,9.27
2023-09-02T20:34:31.656Z,7.75
2023-09-02T20:36:52.710Z,8.80
2023-09-02T20:39:13.765Z,8.73
2023-09-02T20:41:34.695Z,7.90
2023-09-02T20:43:55.169Z,6.90
2023-09-02T20:46:16.118Z,8.77
2023-09-02T20:48:36.910Z,7.13
2023-09-02T20:50:57.403Z,7.00
2023-09-02T20:53:17.899Z,8.55
2023-09-02T20:55:39.492Z,8.27
2023-09-02T20:57:59.949Z,9.68
2023-09-02T21:00:20.620Z,9.00
2023-09-02T21:02:41.146Z,8.40
2023-09-02T21:05:02.045Z,7.75
2023-09-02T21:07:22.690Z,9.18
2023-09-02T21:09:43.687Z,8.52
2023-09-02T21:12:04.854Z,7.22
2023-09-02T21:14:25.706Z,8.75
2023-09-02T21:16:46.685Z,10.85
2023-09-02T21:19:07.209Z,10.00
2023-09-02T21:21:28.035Z,10.77
2023-09-02T21:23:49.240Z,9.70
2023-09-02T21:26:10.969Z,11.25
2023-09-02T21:28:31.567Z,8.38
2023-09-02T21:30:52.099Z,7.90
2023-09-02T21:33:12.780Z,8.30
2023-09-02T21:35:39.390Z,8.02
2023-09-02T21:38:00.474Z,6.68
2023-09-02T21:40:21.071Z,7.57
2023-09-02T21:42:41.821Z,6.88
2023-09-02T21:45:02.757Z,7.22
2023-09-02T21:47:23.678Z,6.43
2023-09-02T21:49:47.050Z,7.32
2023-09-02T21:52:07.650Z,6.65
2023-09-02T21:54:28.227Z,5.95
2023-09-02T21:56:48.804Z,6.53
2023-09-02T21:59:09.355Z,8.02
2023-09-02T22:01:30.013Z,6.07
2023-09-02T22:03:50.629Z,6.75
2023-09-02T22:06:13.689Z,6.78
2023-09-02T22:08:35.433Z,5.97
2023-09-02T22:10:57.235Z,6.93
2023-09-02T22:13:18.040Z,7.13
2023-09-02T22:15:38.581Z,7.95
2023-09-02T22:17:59.002Z,7.20
2023-09-02T22:20:19.627Z,7.53
2023-09-02T22:22:40.338Z,7.40
2023-09-02T22:25:00.797Z,8.30
2023-09-02T22:27:21.292Z,9.18
2023-09-02T22:29:42.005Z,7.25
2023-09-02T22:32:02.800Z,7.57
2023-09-02T22:34:23.742Z,6.85
2023-09-02T22:36:44.285Z,8.93
2023-09-02T22:39:04.854Z,7.88
2023-09-02T22:41:25.654Z,7.53
2023-09-02T22:43:46.057Z,8.10
2023-09-02T22:46:10.496Z,7.32
2023-09-02T22:48:33.333Z,7.45
2023-09-02T22:50:54.143Z,7.85
2023-09-02T22:53:14.828Z,7.47
2023-09-02T22:55:37.284Z,7.70
2023-09-02T22:57:58.127Z,7.78
2023-09-02T23:00:18.832Z,7.63
2023-09-02T23:02:39.699Z,8.65
2023-09-02T23:05:00.389Z,7.32
2023-09-02T23:07:21.187Z,7.38
2023-09-02T23:09:41.748Z,7.25
2023-09-02T23:12:02.532Z,7.32
2023-09-02T23:14:23.150Z,8.98
2023-09-02T23:16:43.634Z,8.23
2023-09-02T23:19:04.497Z,8.13
2023-09-02T23:21:27.065Z,8.48
2023-09-02T23:23:50.532Z,8.80
2023-09-02T23:26:12.058Z,7.13
2023-09-02T23:28:32.586Z,8.80
2023-09-02T23:30:57.496Z,7.90
2023-09-02T23:33:18.405Z,8.00
2023-09-02T23:35:38.920Z,7.95
2023-09-02T23:37:59.675Z,6.50
2023-09-02T23:40:20.352Z,7.05
2023-09-02T23:42:40.835Z,7.88
2023-09-02T23:45:01.314Z,7.63
2023-09-02T23:47:21.868Z,6.72
2023-09-02T23:49:42.693Z,9.95
2023-09-02T23:52:03.886Z,7.43
2023-09-02T23:54:24.417Z,8.95
2023-09-02T23:56:44.904Z,8.85
2023-09-02T23:59:05.422Z,6.70
